AGROMETEOROLOŠKI PORTAL

Vinorodna pokrajina

Temelj dobrega kmetovanja.

Pregled podatkov za lokacijo Dravinjski vrh, meteorološka postaja 517692

Pregled senzorjev na lokaciji

ID Ime Zadnja
vrednost
Datum in čas
meritve
(lokalni čas)
Tip
senzorja
7546 Omočenost lista (1,5 m) (U) 10 U 2.3.2024 08:30 A730WET
7547 Padavine (mm) 0 mm 2.3.2024 08:30 Generic 0.2 mm
7545 Relativna zračna vlaga (2 m) (%RH) 100 %RH 2.3.2024 08:30 50YA
7544 Temperatura (2 m) (°C) 5,4 °C 2.3.2024 08:30 50YA
7549 Smer vetra (3 m) (°) 163 ° 2.3.2024 08:30 Generic 0 - 360
7548 Hitrost vetra (3 m) (km/h) 2 km/h 2.3.2024 08:30 Generic 200 km/h

Pregled podatkov zadnjih 24 ur

Zap.
št.
Datum in čas
(lokalni čas)
Dravinjski vrh
Omočenost
lista
(1,5
m)
Padavine Relativna
zračna
vlaga
(2
m)
Temperatura
(2
m)
Smer
vetra
(3
m)
Hitrost
vetra
(3
m)
1 2.3.2024 08:30 10 0 100 5,4 163,3 2
2 2.3.2024 08:00 10 0 100 5,1 128,6 1,7
3 2.3.2024 07:30 10 0 100 5 146,7 2,4
4 2.3.2024 07:00 10 0 100 5,1 136,7 2,6
5 2.3.2024 06:30 10 0 100 5,1 189 2,3
6 2.3.2024 06:00 10 0 100 5,2 205,5 4,9
7 2.3.2024 05:30 10 0 100 5,5 216,3 7,3
8 2.3.2024 05:00 10 0 100 5,5 230,2 6,2
9 2.3.2024 04:30 10 0 100 5,4 219,2 3,8
10 2.3.2024 04:00 10 0 100 5,3 228,2 3,1
11 2.3.2024 03:30 10 0 100 5,3 212,2 7,5
12 2.3.2024 03:00 10 0 100 5,7 210,9 4,7
13 2.3.2024 02:30 10 0 100 5,7 227,7 3,2
14 2.3.2024 02:00 10 0 100 5,6 249,7 3,6
15 2.3.2024 01:30 10 0 100 5,4 245 5,6
16 2.3.2024 01:00 10 0 100 5,3 163,3 1,2
17 2.3.2024 00:30 10 0 100 5,4 162 2,3
18 2.3.2024 00:00 10 0 100 5,5 154,7 2,4
19 1.3.2024 23:30 10 0 100 5,5 231,8 2,6
20 1.3.2024 23:00 10 0 100 6,2 179,4 0,9
21 1.3.2024 22:30 10 0 100 6,6 221,9 3,3
22 1.3.2024 22:00 10 0 100 6,9 267,1 1,3
23 1.3.2024 21:30 10 0 100 7,1 201,9 3,3
24 1.3.2024 21:00 10 0 100 7,2 150,4 4,6
25 1.3.2024 20:30 9 0 99,7 7,8 202 3,5
26 1.3.2024 20:00 7 0 98,2 8,3 153 3
27 1.3.2024 19:30 5 0 98,2 8,5 145,1 1,5
28 1.3.2024 19:00 4 0 99,4 8,4 165,3 1,2
29 1.3.2024 18:30 3 0 99,2 8,4 115,9 2,5
30 1.3.2024 18:00 2 0 98,6 8,5 125,6 3,1
31 1.3.2024 17:30 1 0 97,3 8,7 128,4 1,4
32 1.3.2024 17:00 0 0 96,2 8,9 102,6 2,7
33 1.3.2024 16:30 0 0 96 9 103 3
34 1.3.2024 16:00 0 0 95,2 9,1 82,1 3
35 1.3.2024 15:30 0 0 95,7 9,1 96,6 2,7
36 1.3.2024 15:00 0 0 95,7 8,9 85,4 2,7
37 1.3.2024 14:30 0 0 93,3 8,9 127,9 1,5
38 1.3.2024 14:00 0 0 92,5 8,9 241,1 2,5
39 1.3.2024 13:30 0 0 94 8,8 229,4 2,3
40 1.3.2024 13:00 1 0 96,9 8,3 212,8 2,4
41 1.3.2024 12:30 9 0,2 98,7 8 269 3
42 1.3.2024 12:00 9 0 100 7,6 231,1 4,2
43 1.3.2024 11:30 10 0,4 100 7,5 322 4,2
44 1.3.2024 11:00 10 0,6 100 7,6 234,5 3,4
45 1.3.2024 10:30 10 0,4 99,8 7,7 213,4 1,8
46 1.3.2024 10:00 10 0 99,3 7,7 81,1 3,2
47 1.3.2024 09:30 10 0 99,5 7,6 204,9 1
48 1.3.2024 09:00 10 0 99,9 7,5 124,4 0,8